Time,TemperatureF,DewpointF,PressureIn,WindDirection,WindDirectionDegrees,WindSpeedMPH,WindSpeedGustMPH,Humidity,HourlyPrecipIn,Conditions,Clouds,dailyrainin,SoftwareType,DateUTC
2013-05-16 00:00:00,61.6,29.9,29.53,SSW,202,0.0,1.0,30,0.00,,SKC,0.00,VWS V12.07,2013-05-16 06:00:00,
2013-05-16 01:00:00,59.3,31.7,29.55,SSW,202,0.0,0.0,35,0.00,,SKC,0.00,VWS V12.07,2013-05-16 07:00:00,
2013-05-16 02:00:00,59.0,33.5,29.55,SSW,202,0.0,0.0,38,0.00,,SKC,0.00,VWS V12.07,2013-05-16 08:00:00,
2013-05-16 03:00:00,60.1,35.7,29.53,SSW,202,0.0,0.0,40,0.00,,SKC,0.00,VWS V12.07,2013-05-16 09:00:00,
2013-05-16 04:00:00,59.0,33.5,29.51,SSW,202,0.0,0.0,38,0.00,,SKC,0.00,VWS V12.07,2013-05-16 10:00:00,
2013-05-16 05:00:00,58.4,34.2,29.52,SSW,202,0.0,0.0,40,0.00,,SKC,0.00,VWS V12.07,2013-05-16 11:00:00,
2013-05-16 06:00:00,57.3,32.6,29.55,SSW,202,0.0,0.0,39,0.00,,SKC,0.00,VWS V12.07,2013-05-16 12:00:00,
2013-05-16 07:00:00,54.8,35.5,29.58,SSW,202,0.0,0.0,48,0.00,,SKC,0.00,VWS V12.07,2013-05-16 13:00:00,
2013-05-16 08:00:00,58.3,39.2,29.60,SSW,202,0.0,0.0,49,0.00,,SKC,0.00,VWS V12.07,2013-05-16 14:00:00,
2013-05-16 09:00:00,64.0,37.9,29.58,ENE,68,0.0,2.0,38,0.00,,SKC,0.00,VWS V12.07,2013-05-16 15:00:00,
2013-05-16 10:00:00,67.4,36.5,29.58,East,90,0.0,4.0,32,0.00,,SKC,0.00,VWS V12.07,2013-05-16 16:00:00,
2013-05-16 11:00:00,69.1,38.8,29.57,East,90,0.0,7.0,33,0.00,,SKC,0.00,VWS V12.07,2013-05-16 17:00:00,
2013-05-16 12:00:00,74.0,33.9,29.51,East,90,0.0,7.0,23,0.00,,SKC,0.00,VWS V12.07,2013-05-16 18:00:00,
2013-05-16 13:00:00,73.3,33.3,29.51,East,90,1.0,9.0,23,0.00,,SKC,0.00,VWS V12.07,2013-05-16 19:00:00,
2013-05-16 14:00:00,75.4,29.0,29.47,ESE,112,0.0,7.0,18,0.00,,SKC,0.00,VWS V12.07,2013-05-16 20:00:00,
2013-05-16 15:00:00,75.4,27.6,29.45,NNW,338,0.0,10.0,17,0.00,,SKC,0.00,VWS V12.07,2013-05-16 21:00:00,
2013-05-16 16:00:00,76.7,25.6,29.42,North,0,1.0,14.0,15,0.00,,SKC,0.00,VWS V12.07,2013-05-16 22:00:00,
2013-05-16 17:00:00,73.9,23.4,29.43,West,270,0.0,12.0,15,0.00,,SKC,0.00,VWS V12.07,2013-05-16 23:00:00,
2013-05-16 18:00:00,72.1,30.0,29.45,SW,225,0.0,10.0,21,0.00,,SKC,0.00,VWS V12.07,2013-05-17 00:00:00,
2013-05-16 19:00:00,73.0,19.3,29.45,West,270,0.0,12.0,13,0.00,,SKC,0.00,VWS V12.07,2013-05-17 01:00:00,
2013-05-16 20:00:00,72.5,17.0,29.45,West,270,1.0,18.0,12,0.00,,SKC,0.00,VWS V12.07,2013-05-17 02:00:00,
2013-05-16 21:01:00,70.8,15.7,29.42,WSW,258,1.0,2.0,12,0.00,,SKC,0.00,VWS V12.07,2013-05-17 03:01:00,
2013-05-16 21:30:00,69.8,29.3,29.43,NE,51,0.0,4.0,22,0.00,,SKC,0.00,VWS V12.07,2013-05-17 03:30:00,
2013-05-16 22:00:00,63.2,32.9,29.48,ESE,116,0.0,4.0,32,0.00,,SKC,0.00,VWS V12.07,2013-05-17 04:00:00,
2013-05-16 22:30:00,61.2,39.7,29.51,ENE,70,0.0,3.0,45,0.00,,SKC,0.00,VWS V12.07,2013-05-17 04:30:00,
2013-05-16 23:00:00,58.3,39.8,29.52,East,94,0.0,3.0,50,0.00,,SKC,0.00,VWS V12.07,2013-05-17 05:00:00,
2013-05-16 23:30:00,56.7,39.8,29.53,South,174,0.0,0.0,53,0.00,,SKC,0.00,VWS V12.07,2013-05-17 05:30:00,